CheckWX is a tool to help pilots better visualize weather data.  It is not intended as a substitute for an official pre-flight weather briefing.

17:07:59 UTC

KLIC METAR
Limon Municipal Airport
Limon, Colorado, USA
Current

1 hour ago

KLIC 211555Z AUTO 00000KT 10SM CLR 24/14 A3021 RMK AO2 SLP150 T02440144
Observed
Jul-21 @ 15:55 UTC
Visibility
10 SM
Flight Rules
VFR
Cloud Levels
  • Clear skies
Temperature
24°C / 75°F
Dewpoint
14°C / 57°F
Humidity
54%
Altimeter
30.21" Hg
Pressure
1023.02 hPa
Previous

2 hours ago

KLIC 211455Z AUTO VRB03KT 10SM CLR 21/16 A3020 RMK AO2 SLP154 T02110161 52014
Observed
Jul-21 @ 14:55 UTC
Wind
  • Variable at 3 KTS
Visibility
10 SM
Flight Rules
VFR
Cloud Levels
  • Clear skies
Temperature
21°C / 70°F
Dewpoint
16°C / 61°F
Humidity
73%
Altimeter
30.2" Hg
Pressure
1022.72 hPa
Previous

3 hours ago

KLIC 211355Z AUTO 35003KT 10SM CLR 18/15 A3018 RMK AO2 SLP149 T01830150
Observed
Jul-21 @ 13:55 UTC
Wind
  • 350° at 3 KTS
Visibility
10 SM
Flight Rules
VFR
Cloud Levels
  • Clear skies
Temperature
18°C / 64°F
Dewpoint
15°C / 59°F
Humidity
83%
Altimeter
30.18" Hg
Pressure
1022.02 hPa